createdAt,value
2023-04-13T00:00:39.164Z,2.40
2023-04-13T00:03:08.620Z,2.20
2023-04-13T00:05:36.410Z,2.00
2023-04-13T00:08:03.739Z,1.90
2023-04-13T00:10:31.731Z,2.07
2023-04-13T00:13:01.519Z,1.90
2023-04-13T00:15:28.804Z,2.08
2023-04-13T00:17:56.027Z,1.88
2023-04-13T00:20:23.364Z,2.17
2023-04-13T00:22:50.766Z,2.00
2023-04-13T00:25:18.063Z,1.87
2023-04-13T00:27:45.536Z,1.85
2023-04-13T00:30:16.625Z,1.95
2023-04-13T00:32:45.230Z,1.90
2023-04-13T00:35:13.742Z,1.77
2023-04-13T00:37:43.226Z,2.00
2023-04-13T00:40:11.483Z,1.92
2023-04-13T00:45:06.538Z,1.73
2023-04-13T00:47:34.381Z,1.90
2023-04-13T00:50:02.311Z,1.90
2023-04-13T00:52:29.608Z,1.70
2023-04-13T00:54:58.710Z,1.80
2023-04-13T00:57:27.199Z,1.80
2023-04-13T00:59:54.455Z,1.90
2023-04-13T01:02:26.556Z,1.90
2023-04-13T01:04:55.901Z,2.17
2023-04-13T01:07:28.546Z,2.08
2023-04-13T01:09:55.813Z,1.90
2023-04-13T01:12:29.078Z,2.08
2023-04-13T01:14:56.822Z,2.03
2023-04-13T01:17:25.865Z,1.90
2023-04-13T01:20:08.577Z,1.85
2023-04-13T01:22:37.169Z,1.90
2023-04-13T01:25:17.800Z,1.77
2023-04-13T01:27:55.733Z,1.90
2023-04-13T01:30:27.161Z,1.40
2023-04-13T01:32:54.609Z,1.70
2023-04-13T01:35:22.861Z,1.67
2023-04-13T01:40:24.144Z,1.70
2023-04-13T01:42:51.473Z,2.00
2023-04-13T01:45:21.445Z,1.63
2023-04-13T01:47:55.528Z,1.80
2023-04-13T01:50:30.072Z,1.70
2023-04-13T01:53:05.189Z,1.60
2023-04-13T01:55:33.196Z,1.52
2023-04-13T01:58:02.011Z,1.50
2023-04-13T02:00:35.788Z,2.10
2023-04-13T02:03:09.880Z,1.52
2023-04-13T02:05:37.332Z,1.88
2023-04-13T02:08:05.302Z,1.70
2023-04-13T02:10:33.755Z,1.58
2023-04-13T02:13:01.629Z,1.50
2023-04-13T02:15:28.849Z,1.60
2023-04-13T02:17:56.127Z,1.60
2023-04-13T02:20:23.374Z,1.60
2023-04-13T02:22:50.589Z,1.30
2023-04-13T02:25:18.887Z,1.48
2023-04-13T02:27:46.107Z,1.40
2023-04-13T02:30:13.460Z,1.40
2023-04-13T02:32:41.401Z,1.70
2023-04-13T02:35:10.199Z,1.50
2023-04-13T02:37:39.833Z,1.73
2023-04-13T02:40:10.398Z,1.80
2023-04-13T02:42:38.554Z,1.60
2023-04-13T02:45:07.439Z,1.65
2023-04-13T02:47:34.933Z,1.10
2023-04-13T02:50:02.579Z,1.50
2023-04-13T02:52:29.872Z,1.20
2023-04-13T02:54:57.225Z,1.50
2023-04-13T02:57:27.040Z,1.37
2023-04-13T02:59:54.307Z,1.50
2023-04-13T03:02:21.627Z,1.52
2023-04-13T03:04:49.031Z,1.60
2023-04-13T03:07:17.208Z,1.43
2023-04-13T03:12:12.224Z,1.40
2023-04-13T03:14:39.515Z,1.50
2023-04-13T03:17:11.545Z,1.37
2023-04-13T03:19:38.826Z,1.50
2023-04-13T03:22:06.050Z,1.20
2023-04-13T03:24:35.135Z,1.30
2023-04-13T03:27:02.581Z,1.55
2023-04-13T03:29:29.866Z,1.20
2023-04-13T03:31:57.111Z,1.30
2023-04-13T03:34:26.734Z,1.10
2023-04-13T03:36:53.951Z,1.42
2023-04-13T03:39:21.176Z,1.30
2023-04-13T03:41:48.433Z,1.20
2023-04-13T03:44:16.532Z,1.07
2023-04-13T03:46:44.887Z,1.27
2023-04-13T03:49:12.300Z,1.33
2023-04-13T03:51:39.479Z,1.10
2023-04-13T03:54:06.703Z,1.30
2023-04-13T03:56:33.987Z,1.33
2023-04-13T03:59:01.493Z,1.03
2023-04-13T04:01:28.743Z,1.30
2023-04-13T04:03:57.666Z,1.10
2023-04-13T04:06:27.194Z,1.17
2023-04-13T04:08:54.437Z,1.35
2023-04-13T04:11:22.340Z,1.10
2023-04-13T04:13:49.556Z,1.40
2023-04-13T04:16:17.326Z,1.40
2023-04-13T04:18:44.927Z,1.38
2023-04-13T04:21:15.640Z,1.10
2023-04-13T04:23:42.933Z,1.30
2023-04-13T04:26:10.172Z,1.08
2023-04-13T04:28:40.295Z,1.50
2023-04-13T04:31:10.692Z,1.13
2023-04-13T04:33:41.087Z,1.13
2023-04-13T04:36:10.452Z,1.05
2023-04-13T04:38:37.965Z,1.10
2023-04-13T04:41:05.292Z,1.13
2023-04-13T04:43:32.596Z,1.02
2023-04-13T04:46:03.107Z,1.23
2023-04-13T04:48:31.068Z,1.15
2023-04-13T04:50:58.492Z,1.02
2023-04-13T04:53:26.109Z,1.20
2023-04-13T04:55:53.368Z,1.15
2023-04-13T04:58:20.698Z,1.30
2023-04-13T05:00:49.878Z,1.10
2023-04-13T05:03:17.227Z,1.40
2023-04-13T05:05:44.562Z,1.10
2023-04-13T05:08:12.007Z,1.30
2023-04-13T05:10:45.515Z,1.30
2023-04-13T05:13:13.143Z,1.15
2023-04-13T05:15:40.405Z,1.20
2023-04-13T05:18:07.621Z,1.50
2023-04-13T05:20:34.921Z,1.00
2023-04-13T05:23:03.065Z,1.40
2023-04-13T05:25:30.870Z,1.30
2023-04-13T05:27:58.064Z,1.48
2023-04-13T05:30:25.629Z,1.30
2023-04-13T05:32:52.922Z,1.42
2023-04-13T05:35:20.333Z,1.38
2023-04-13T05:37:47.808Z,1.45
2023-04-13T05:40:15.317Z,1.33
2023-04-13T05:42:43.606Z,1.20
2023-04-13T05:45:11.095Z,1.10
2023-04-13T05:47:40.078Z,1.25
2023-04-13T05:50:08.115Z,1.40
2023-04-13T05:52:37.639Z,1.40
2023-04-13T05:55:04.941Z,1.13
2023-04-13T05:57:32.300Z,1.20
2023-04-13T05:59:59.768Z,1.55
2023-04-13T06:02:31.508Z,1.40
2023-04-13T06:04:59.019Z,1.73
2023-04-13T06:07:28.098Z,1.65
2023-04-13T06:09:55.433Z,1.98
2023-04-13T06:12:22.633Z,2.03
2023-04-13T06:14:49.854Z,1.83
2023-04-13T06:17:17.247Z,1.70
2023-04-13T06:19:44.515Z,1.80
2023-04-13T06:22:11.716Z,2.00
2023-04-13T06:24:41.412Z,2.35
2023-04-13T06:27:08.618Z,1.88
2023-04-13T06:29:36.601Z,2.35
2023-04-13T06:32:04.618Z,2.33
2023-04-13T06:34:31.853Z,2.33
2023-04-13T06:36:59.469Z,2.20
2023-04-13T06:39:28.752Z,2.20
2023-04-13T06:41:57.660Z,1.85
2023-04-13T06:44:25.041Z,1.90
2023-04-13T06:46:52.393Z,2.20
2023-04-13T06:49:19.814Z,2.70
2023-04-13T06:51:47.027Z,2.43
2023-04-13T06:54:14.487Z,2.20
2023-04-13T06:56:41.843Z,2.03
2023-04-13T06:59:09.291Z,2.10
2023-04-13T07:01:36.818Z,2.53
2023-04-13T07:04:06.953Z,2.35
2023-04-13T07:06:34.614Z,2.42
2023-04-13T07:09:01.939Z,2.20
2023-04-13T07:11:29.116Z,2.30
2023-04-13T07:13:56.948Z,2.20
2023-04-13T07:16:24.266Z,2.33
2023-04-13T07:18:51.689Z,2.50
2023-04-13T07:21:18.898Z,2.72
2023-04-13T07:23:46.150Z,2.60
2023-04-13T07:26:16.685Z,2.33
2023-04-13T07:28:43.972Z,2.60
2023-04-13T07:31:11.838Z,2.60
2023-04-13T07:33:39.170Z,2.08
2023-04-13T07:36:06.715Z,2.33
2023-04-13T07:38:34.008Z,2.25
2023-04-13T07:41:01.289Z,1.93
2023-04-13T07:43:28.482Z,2.43
2023-04-13T07:45:55.822Z,2.03
2023-04-13T07:48:22.993Z,2.30
2023-04-13T07:50:50.231Z,2.45
2023-04-13T07:53:17.507Z,2.00
2023-04-13T07:55:45.885Z,2.40
2023-04-13T07:58:13.176Z,2.60
2023-04-13T08:00:40.404Z,2.33
2023-04-13T08:03:07.789Z,1.90
2023-04-13T08:05:36.864Z,2.25
2023-04-13T08:08:04.181Z,2.28
2023-04-13T08:10:31.481Z,2.33
2023-04-13T08:12:59.447Z,2.60
2023-04-13T08:15:27.301Z,2.63
2023-04-13T08:17:54.725Z,2.28
2023-04-13T08:20:21.999Z,2.50
2023-04-13T08:22:49.260Z,2.10
2023-04-13T08:25:17.563Z,2.22
2023-04-13T08:27:45.017Z,2.38
2023-04-13T08:30:12.578Z,2.22
2023-04-13T08:32:39.797Z,2.60
2023-04-13T08:35:07.588Z,2.40
2023-04-13T08:37:35.183Z,2.47
2023-04-13T08:40:02.634Z,2.72
2023-04-13T08:42:30.947Z,2.70
2023-04-13T08:44:59.351Z,2.35
2023-04-13T08:47:29.658Z,2.38
2023-04-13T08:50:00.469Z,2.60
2023-04-13T08:52:28.448Z,2.28
2023-04-13T08:54:56.655Z,2.67
2023-04-13T08:59:54.712Z,2.33
2023-04-13T09:02:24.516Z,2.33
2023-04-13T09:04:54.328Z,2.53
2023-04-13T09:07:29.157Z,2.28
2023-04-13T09:10:00.115Z,2.30
2023-04-13T09:12:27.930Z,2.47
2023-04-13T09:14:55.225Z,2.83
2023-04-13T09:17:25.694Z,2.20
2023-04-13T09:19:53.344Z,2.55
2023-04-13T09:22:21.701Z,2.40
2023-04-13T09:24:51.407Z,2.38
2023-04-13T09:27:20.263Z,2.10
2023-04-13T09:29:51.686Z,2.10
2023-04-13T09:32:26.434Z,2.40
2023-04-13T09:35:04.219Z,2.42
2023-04-13T09:37:33.871Z,2.35
2023-04-13T09:40:14.122Z,2.30
2023-04-13T09:42:42.090Z,2.50
2023-04-13T09:45:12.337Z,2.45
2023-04-13T09:47:41.062Z,2.17
2023-04-13T09:50:26.911Z,2.53
2023-04-13T09:53:04.951Z,2.30
2023-04-13T09:58:10.136Z,2.78
2023-04-13T10:00:42.025Z,2.35
2023-04-13T10:03:16.369Z,2.67
2023-04-13T10:05:58.797Z,2.90
2023-04-13T10:10:58.816Z,2.40
2023-04-13T10:13:28.648Z,2.25
2023-04-13T10:16:14.856Z,2.53
2023-04-13T10:18:45.210Z,2.28
2023-04-13T10:21:12.945Z,2.45
2023-04-13T10:23:40.284Z,2.50
2023-04-13T10:26:07.617Z,2.50
2023-04-13T10:28:44.588Z,2.50
2023-04-13T10:31:11.956Z,2.33
2023-04-13T10:33:49.261Z,2.75
2023-04-13T10:36:16.646Z,2.30
2023-04-13T10:38:44.615Z,2.22
2023-04-13T10:41:12.009Z,2.10
2023-04-13T10:43:39.264Z,2.13
2023-04-13T10:46:07.305Z,2.60
2023-04-13T10:48:34.797Z,2.15
2023-04-13T10:51:02.640Z,2.00
2023-04-13T10:53:35.176Z,2.50
2023-04-13T10:56:02.554Z,2.35
2023-04-13T10:58:33.124Z,2.30
2023-04-13T11:01:00.782Z,2.13
2023-04-13T11:03:28.936Z,2.30
2023-04-13T11:06:00.119Z,2.63
2023-04-13T11:08:28.570Z,2.28
2023-04-13T11:10:59.161Z,2.20
2023-04-13T11:13:26.887Z,2.45
2023-04-13T11:16:02.739Z,1.90
2023-04-13T11:18:29.987Z,1.88
2023-04-13T11:20:57.534Z,2.30
2023-04-13T11:23:25.438Z,3.03
2023-04-13T11:25:54.744Z,3.50
2023-04-13T11:28:25.687Z,3.88
2023-04-13T11:30:54.446Z,3.70
2023-04-13T11:33:28.939Z,3.58
2023-04-13T11:35:57.306Z,3.67
2023-04-13T11:38:24.547Z,3.13
2023-04-13T11:40:58.857Z,3.60
2023-04-13T11:43:35.335Z,3.53
2023-04-13T11:46:02.601Z,3.05
2023-04-13T11:48:30.066Z,2.90
2023-04-13T11:50:58.955Z,3.23
2023-04-13T11:53:26.220Z,2.42
2023-04-13T11:55:53.985Z,2.63
2023-04-13T11:58:21.879Z,2.55
2023-04-13T12:00:49.464Z,2.38
2023-04-13T12:06:01.800Z,2.45
2023-04-13T12:08:30.496Z,2.38
2023-04-13T12:11:25.141Z,2.20
2023-04-13T12:16:55.318Z,2.45
2023-04-13T12:19:16.461Z,2.60
2023-04-13T12:21:56.844Z,2.47
2023-04-13T12:24:37.913Z,1.95
2023-04-13T12:29:42.007Z,2.10
2023-04-13T12:32:16.957Z,2.50
2023-04-13T12:34:44.952Z,2.47
2023-04-13T12:37:12.500Z,2.30
2023-04-13T12:39:39.909Z,2.47
2023-04-13T12:42:07.173Z,2.08
2023-04-13T12:44:34.754Z,1.73
2023-04-13T12:47:02.480Z,2.10
2023-04-13T12:49:30.150Z,1.98
2023-04-13T12:51:57.630Z,1.85
2023-04-13T12:54:28.638Z,1.92
2023-04-13T12:56:57.090Z,2.05
2023-04-13T12:59:24.614Z,1.90
2023-04-13T13:01:52.016Z,1.65
2023-04-13T13:04:19.393Z,2.10
2023-04-13T13:06:46.667Z,1.70
2023-04-13T13:09:13.850Z,1.73
2023-04-13T13:11:41.372Z,1.58
2023-04-13T13:14:11.092Z,1.92
2023-04-13T13:16:38.567Z,1.60
2023-04-13T13:19:06.021Z,1.83
2023-04-13T13:21:33.747Z,1.60
2023-04-13T13:24:01.023Z,1.98
2023-04-13T13:26:36.721Z,2.10
2023-04-13T13:29:17.553Z,1.65
2023-04-13T13:31:44.816Z,1.85
2023-04-13T13:34:12.020Z,1.67
2023-04-13T13:36:39.257Z,1.80
2023-04-13T13:39:07.450Z,1.88
2023-04-13T13:44:01.908Z,1.73
2023-04-13T13:46:29.287Z,1.77
2023-04-13T13:48:56.609Z,1.70
2023-04-13T13:51:23.814Z,1.87
2023-04-13T13:53:51.039Z,2.08
2023-04-13T13:56:18.386Z,2.00
2023-04-13T13:58:45.623Z,1.60
2023-04-13T14:01:12.847Z,1.57
2023-04-13T14:03:40.312Z,1.67
2023-04-13T14:06:07.994Z,1.83
2023-04-13T14:08:35.482Z,1.45
2023-04-13T14:11:03.279Z,1.50
2023-04-13T14:13:33.901Z,1.85
2023-04-13T14:16:01.221Z,1.52
2023-04-13T14:18:30.994Z,1.60
2023-04-13T14:20:58.277Z,1.60
2023-04-13T14:23:25.616Z,1.63
2023-04-13T14:25:52.866Z,1.65
2023-04-13T14:28:20.117Z,1.70
2023-04-13T14:30:49.840Z,1.60
2023-04-13T14:33:17.378Z,1.70
2023-04-13T14:35:44.624Z,1.70
2023-04-13T14:38:11.822Z,1.98
2023-04-13T14:40:39.211Z,2.40
2023-04-13T14:43:08.706Z,2.13
2023-04-13T14:45:35.958Z,2.42
2023-04-13T14:48:03.329Z,2.28
2023-04-13T14:50:31.066Z,2.53
2023-04-13T14:52:58.639Z,2.30
2023-04-13T14:55:25.858Z,2.50
2023-04-13T14:57:53.995Z,3.40
2023-04-13T15:03:10.741Z,3.40
2023-04-13T15:05:46.300Z,3.70
2023-04-13T15:08:17.712Z,3.80
2023-04-13T15:10:45.792Z,3.30
2023-04-13T15:13:13.214Z,2.75
2023-04-13T15:15:40.824Z,2.90
2023-04-13T15:18:09.090Z,2.67
2023-04-13T15:20:36.531Z,2.50
2023-04-13T15:23:03.877Z,2.83
2023-04-13T15:25:31.243Z,2.30
2023-04-13T15:27:59.225Z,2.43
2023-04-13T15:30:27.458Z,2.70
2023-04-13T15:32:59.135Z,2.60
2023-04-13T15:35:27.405Z,2.70
2023-04-13T15:40:22.487Z,2.50
2023-04-13T15:42:50.054Z,2.47
2023-04-13T15:45:17.338Z,2.15
2023-04-13T15:47:44.617Z,2.37
2023-04-13T15:50:12.635Z,2.27
2023-04-13T15:52:39.939Z,2.60
2023-04-13T15:55:07.900Z,1.90
2023-04-13T15:57:35.529Z,2.50
2023-04-13T16:00:04.337Z,2.10
2023-04-13T16:02:32.362Z,2.63
2023-04-13T16:04:59.826Z,2.67
2023-04-13T16:07:27.092Z,2.10
2023-04-13T16:09:58.343Z,2.30
2023-04-13T16:12:32.099Z,2.30
2023-04-13T16:15:03.303Z,2.15
2023-04-13T16:17:31.784Z,2.38
2023-04-13T16:20:10.810Z,2.22
2023-04-13T16:22:38.363Z,2.30
2023-04-13T16:25:09.008Z,2.40
2023-04-13T16:27:36.647Z,2.00
2023-04-13T16:30:05.176Z,1.98
2023-04-13T16:32:34.908Z,2.15
2023-04-13T16:35:02.663Z,2.00
2023-04-13T16:37:29.902Z,2.00
2023-04-13T16:39:57.125Z,2.00
2023-04-13T16:42:24.368Z,2.10
2023-04-13T16:44:51.787Z,1.98
2023-04-13T16:47:21.124Z,1.85
2023-04-13T16:49:48.352Z,2.45
2023-04-13T16:52:15.826Z,2.17
2023-04-13T16:54:43.919Z,2.10
2023-04-13T17:02:11.156Z,2.30
2023-04-13T17:04:42.817Z,2.03
2023-04-13T17:07:12.345Z,2.20
2023-04-13T17:09:39.580Z,2.15
2023-04-13T17:12:06.862Z,2.20
2023-04-13T17:14:34.125Z,2.03
2023-04-13T17:17:01.691Z,2.20
2023-04-13T17:19:28.984Z,1.92
2023-04-13T17:21:56.196Z,1.80
2023-04-13T17:24:23.452Z,2.10
2023-04-13T17:26:50.648Z,2.20
2023-04-13T17:29:20.273Z,1.95
2023-04-13T17:31:47.531Z,1.95
2023-04-13T17:34:14.815Z,2.50
2023-04-13T17:36:42.027Z,1.83
2023-04-13T17:39:09.389Z,2.00
2023-04-13T17:41:36.891Z,2.20
2023-04-13T17:44:04.126Z,2.70
2023-04-13T17:46:31.496Z,2.30
2023-04-13T17:48:59.094Z,2.20
2023-04-13T17:51:26.774Z,3.45
2023-04-13T17:53:56.248Z,2.95
2023-04-13T17:56:23.473Z,2.90
2023-04-13T17:58:50.691Z,2.85
2023-04-13T18:01:18.091Z,3.03
2023-04-13T18:03:45.566Z,3.53
2023-04-13T18:06:12.834Z,3.03
2023-04-13T18:08:40.044Z,3.05
2023-04-13T18:11:07.685Z,2.88
2023-04-13T18:13:34.969Z,2.97
2023-04-13T18:16:02.457Z,3.20
2023-04-13T18:18:29.787Z,3.15
2023-04-13T18:20:57.036Z,3.17
2023-04-13T18:23:24.308Z,2.85
2023-04-13T18:25:52.220Z,2.63
2023-04-13T18:28:19.578Z,2.40
2023-04-13T18:30:46.851Z,2.67
2023-04-13T18:33:14.196Z,2.40
2023-04-13T18:35:45.762Z,2.70
2023-04-13T18:38:13.221Z,2.45
2023-04-13T18:40:40.641Z,2.17
2023-04-13T18:43:07.976Z,2.40
2023-04-13T18:45:35.281Z,2.60
2023-04-13T18:48:02.663Z,2.63
2023-04-13T18:50:29.958Z,2.67
2023-04-13T18:52:57.470Z,2.63
2023-04-13T18:55:26.680Z,3.05
2023-04-13T18:57:56.298Z,2.38
2023-04-13T19:00:23.911Z,3.33
2023-04-13T19:02:53.895Z,2.78
2023-04-13T19:05:21.261Z,2.72
2023-04-13T19:07:57.241Z,2.97
2023-04-13T19:10:24.726Z,2.90
2023-04-13T19:12:52.033Z,3.75
2023-04-13T19:15:19.315Z,4.13
2023-04-13T19:17:46.981Z,3.60
2023-04-13T19:20:14.522Z,4.13
2023-04-13T19:22:41.736Z,4.00
2023-04-13T19:25:14.253Z,4.47
2023-04-13T19:27:45.634Z,4.25
2023-04-13T19:30:16.594Z,5.30
2023-04-13T19:32:44.869Z,4.88
2023-04-13T19:37:40.157Z,4.70
2023-04-13T19:40:13.547Z,4.63
2023-04-13T19:42:41.784Z,4.45
2023-04-13T19:45:09.611Z,4.50
2023-04-13T19:47:37.474Z,3.92
2023-04-13T19:50:05.919Z,4.30
2023-04-13T19:52:33.167Z,4.25
2023-04-13T19:55:00.610Z,4.70
2023-04-13T19:57:28.518Z,4.43
2023-04-13T19:59:55.949Z,4.22
2023-04-13T20:02:23.419Z,3.97
2023-04-13T20:04:51.037Z,3.95
2023-04-13T20:07:18.534Z,4.28
2023-04-13T20:09:46.349Z,4.03
2023-04-13T20:12:13.780Z,3.60
2023-04-13T20:14:42.220Z,3.47
2023-04-13T20:17:09.788Z,3.88
2023-04-13T20:19:37.124Z,3.70
2023-04-13T20:22:05.196Z,3.50
2023-04-13T20:24:32.552Z,3.38
2023-04-13T20:26:59.823Z,3.83
2023-04-13T20:29:27.606Z,3.27
2023-04-13T20:31:55.286Z,3.60
2023-04-13T20:34:24.245Z,3.85
2023-04-13T20:36:51.501Z,3.65
2023-04-13T20:39:21.911Z,3.03
2023-04-13T20:41:54.660Z,3.78
2023-04-13T20:44:25.828Z,3.38
2023-04-13T20:46:56.955Z,3.22
2023-04-13T20:49:24.962Z,3.63
2023-04-13T20:51:53.799Z,3.50
2023-04-13T20:54:21.576Z,3.80
2023-04-13T20:56:49.248Z,3.20
2023-04-13T20:59:18.274Z,2.88
2023-04-13T21:01:45.937Z,3.45
2023-04-13T21:04:13.296Z,3.42
2023-04-13T21:06:40.707Z,3.08
2023-04-13T21:09:08.785Z,3.13
2023-04-13T21:14:03.991Z,3.10
2023-04-13T21:16:31.599Z,3.05
2023-04-13T21:18:59.178Z,3.30
2023-04-13T21:21:27.740Z,3.20
2023-04-13T21:23:55.017Z,3.10
2023-04-13T21:26:22.358Z,3.35
2023-04-13T21:28:49.717Z,2.93
2023-04-13T21:31:16.983Z,3.25
2023-04-13T21:33:44.270Z,3.10
2023-04-13T21:38:42.090Z,3.20
2023-04-13T21:41:16.165Z,2.85
2023-04-13T21:43:43.824Z,3.08
2023-04-13T21:46:11.938Z,3.03
2023-04-13T21:51:07.433Z,2.53
2023-04-13T21:53:40.424Z,3.15
2023-04-13T21:56:07.883Z,2.90
2023-04-13T21:58:39.452Z,3.08
2023-04-13T22:01:07.313Z,2.58
2023-04-13T22:03:46.037Z,2.72
2023-04-13T22:06:13.808Z,3.17
2023-04-13T22:08:41.502Z,2.85
2023-04-13T22:11:08.843Z,3.03
2023-04-13T22:13:36.347Z,2.60
2023-04-13T22:16:03.649Z,3.22
2023-04-13T22:18:31.262Z,3.00
2023-04-13T22:20:59.953Z,2.80
2023-04-13T22:23:27.455Z,2.83
2023-04-13T22:26:00.815Z,2.90
2023-04-13T22:28:31.761Z,2.80
2023-04-13T22:30:59.353Z,2.25
2023-04-13T22:33:31.649Z,2.38
2023-04-13T22:35:59.207Z,2.70
2023-04-13T22:38:26.399Z,2.28
2023-04-13T22:40:53.613Z,2.85
2023-04-13T22:43:21.055Z,2.50
2023-04-13T22:45:48.250Z,2.65
2023-04-13T22:48:15.572Z,2.40
2023-04-13T22:50:42.787Z,2.50
2023-04-13T22:53:10.005Z,2.55
2023-04-13T22:55:37.206Z,2.45
2023-04-13T22:58:04.403Z,2.78
2023-04-13T23:00:31.733Z,2.42
2023-04-13T23:02:59.091Z,2.40
2023-04-13T23:05:26.484Z,2.13
2023-04-13T23:07:53.751Z,2.55
2023-04-13T23:10:21.050Z,2.50
2023-04-13T23:12:48.285Z,2.50
2023-04-13T23:15:15.527Z,2.58
2023-04-13T23:17:42.793Z,2.70
2023-04-13T23:20:13.061Z,2.03
2023-04-13T23:22:40.464Z,2.50
2023-04-13T23:25:07.797Z,2.83
2023-04-13T23:27:37.437Z,2.50
2023-04-13T23:30:05.076Z,2.28
2023-04-13T23:32:32.376Z,2.15
2023-04-13T23:34:59.578Z,2.43
2023-04-13T23:37:26.783Z,2.33
2023-04-13T23:39:54.016Z,2.33
2023-04-13T23:42:23.699Z,2.53
2023-04-13T23:44:50.949Z,2.40
2023-04-13T23:47:18.271Z,2.15
2023-04-13T23:49:46.851Z,2.40
2023-04-13T23:52:14.069Z,2.10
2023-04-13T23:54:41.307Z,2.30
2023-04-13T23:57:09.761Z,2.20
2023-04-13T23:59:36.951Z,2.50
